Aeroporto :
LOGIN :

Iscrizione | Disclaimer

   EN    FR    IT 

 










Sommario :    VFR   VFR Marginale   IFR   IFR Intensivo   IFR Molto Intensivo
Visibilità : 
Base nubi : 
>= 8 km
>= 3000ft
5 / 8 km
1000 / 3000 ft
1500m / 5 km
500 / 1000 ft
800 / 1500m
200 / 500 ft
< 800m
< 200 ft
Simboli :   Temporali  Nebbia  Neve Forte  Precipitazioni Forti  Vento > 20 kt
SIGMETs :   Varie  Temporali  Ghiacco  Turbolenza  Onda orograficha  Ceneri Vulcaniche







- Altitudine del aeroporto : 13 ft
- Codice IATA : CAG


LIEE - Cagliari Elmas

ULTIMO METAR :
  • 180850Z 27005KT 240V310 CAVOK 26/16 Q1015

METARs OBSOLETI :
  • 180820Z 35004KT 310V050 CAVOK 24/15 Q1015
  • 180750Z 35006KT 320V020 CAVOK 23/16 Q1015
  • 180720Z 31007KT 280V340 CAVOK 22/17 Q1015
  • 180650Z 33006KT CAVOK 21/17 Q1015
  • 180620Z 33008KT CAVOK 19/17 Q1015

TAF TAF LIEE
Valido dal 18 a 06 ore il 19 a 06 ore UTC


180500Z 1806/1906 34006KT CAVOK
BECMG 1808/1810 16012KT
BECMG 1817/1819 VRB05KT
Nessun NOTAM noto per questo aeroporto.



MetMap, La meteo Aeronautica in un colpo d'occhio ! - Copyright ORBIFLY Dicembre 2007 - Disclaimer

ORBIFLY MET'MAP TEAM :

Programmazione e sviluppo : Alexandra Zaïnal
Concezione e sviluppo : Baudouin d'Aumeries
Co-Programmazione e sviluppo : Marc-Olivier Méhu
Supporto tecnico e logistico : Manuel Goepfert
Aiuto per la traduzione : Arnaldo La Scala

Contatto : metmap@orbifly.com




FONTI E CREDITI :

   NOAA